»·PEaware :: WAT203 KSMF-KSNA

WAT203 :: KSMF-KSNA

FLIGHT INFORMATION

Flight Status: Arrived
Operator: Unknown
More flights by this operator :: More flights under this callsign
Pilot: Zachary C. (8151)
Aircraft: AIRBUS A319
(A319)
More flights by this aircraft type
Origin: KSMF Sacramento Intl
United States
Destination: KSNA John Wayne-Orange Co
United States
More flights between these airports :: More routes between these airports
Route: FTHIL3 FRA REBRG OHSEA2
File this flight plan on PilotEdge
Remarks: RMK / SIMBRIEF
Altitude:
(Current/Filed)
37,000ft
Speed:
(Current/Filed)
446kts
Departed: 22-May-20 01:47 PM
Arrived: 22-May-20 02:57 PM
Distance/Time
Traveled:
351nm/1:09
Distance/Time
To Go:
Arrived

Flight Plot

Page will automatically refresh every two minutes.


Map Options




Map Legend


Flown Route
Filed Route
Departure Airport
Arrival Airport
Navaid (VOR, NDB)
Fix

Horizontal Profiles

Position Reports

Time Latitude Longitude Heading Altitude Ground
Speed
22-May-20 13:18 38.695167 -121.595047 45 34ft 0kts
22-May-20 13:19 38.695167 -121.595047 45 34ft 0kts
22-May-20 13:20 38.695167 -121.595047 45 34ft 0kts
22-May-20 13:21 38.695167 -121.595047 45 34ft 0kts
22-May-20 13:22 38.695167 -121.595047 45 34ft 0kts
22-May-20 13:23 38.695167 -121.595047 45 34ft 0kts
22-May-20 13:24 38.695167 -121.595047 45 34ft 0kts
22-May-20 13:25 38.695167 -121.595047 45 34ft 0kts
22-May-20 13:26 38.695167 -121.595047 45 34ft 0kts
22-May-20 13:28 38.695167 -121.595047 45 34ft 0kts
22-May-20 13:29 38.695167 -121.595047 45 34ft 0kts
22-May-20 13:30 38.695167 -121.595047 45 34ft 0kts
22-May-20 13:31 38.695167 -121.595047 45 34ft 0kts
22-May-20 13:32 38.695167 -121.595047 45 34ft 0kts
22-May-20 13:33 38.695167 -121.595047 45 34ft 0kts
22-May-20 13:34 38.695167 -121.595047 45 34ft 0kts
22-May-20 13:35 38.695167 -121.595047 45 34ft 0kts
22-May-20 13:36 38.695101 -121.595125 27 34ft 2kts
22-May-20 13:37 38.694611 -121.594864 282 34ft 2kts
22-May-20 13:38 38.694601 -121.594725 265 34ft 0kts
22-May-20 13:39 38.694601 -121.594726 265 34ft 0kts
22-May-20 13:40 38.694601 -121.594726 265 34ft 0kts
22-May-20 13:41 38.694601 -121.594726 265 34ft 0kts
22-May-20 13:42 38.694582 -121.595089 267 34ft 9kts
22-May-20 13:43 38.692676 -121.598708 180 34ft 18kts
22-May-20 13:43 38.685962 -121.598833 180 34ft 37kts
22-May-20 13:45 38.683841 -121.600133 272 34ft 0kts
22-May-20 13:46 38.683841 -121.600161 271 34ft 1kts
22-May-20 13:46 38.688103 -121.601503 0 34ft 86kts
22-May-20 13:47 38.725732 -121.586860 72 2100ft 178kts
22-May-20 13:48 38.696140 -121.522263 125 4431ft 249kts
22-May-20 13:49 38.649818 -121.442195 126 7348ft 301kts
22-May-20 13:50 38.599121 -121.353615 126 10669ft 322kts
22-May-20 13:51 38.541342 -121.252519 127 12370ft 389kts
22-May-20 13:52 38.472212 -121.132127 127 14276ft 439kts
22-May-20 13:53 38.398666 -121.004570 129 17005ft 453kts
22-May-20 13:54 38.322705 -120.873580 130 19009ft 465kts
22-May-20 13:55 38.245552 -120.740969 130 19080ft 472kts
22-May-20 13:56 38.166184 -120.604990 130 21166ft 485kts
22-May-20 13:57 38.083626 -120.464292 130 22816ft 503kts
22-May-20 13:58 38.000211 -120.316874 128 24263ft 520kts
22-May-20 13:59 37.903315 -120.184541 153 25873ft 507kts
22-May-20 14:00 37.780597 -120.094279 155 27324ft 511kts
22-May-20 14:01 37.656841 -120.002816 155 28756ft 514kts
22-May-20 14:02 37.533355 -119.911360 155 30058ft 517kts
22-May-20 14:03 37.408301 -119.819164 155 31249ft 520kts
22-May-20 14:04 37.283145 -119.727194 155 32365ft 523kts
22-May-20 14:05 37.156740 -119.637691 161 33372ft 521kts
22-May-20 14:06 37.020274 -119.597530 183 34347ft 500kts
22-May-20 14:07 36.882334 -119.600568 185 35308ft 496kts
22-May-20 14:08 36.745350 -119.602884 185 36119ft 494kts
22-May-20 14:09 36.608209 -119.605166 185 36810ft 493kts
22-May-20 14:10 36.470794 -119.607457 185 36975ft 494kts
22-May-20 14:11 36.333176 -119.609780 185 36976ft 493kts
22-May-20 14:12 36.198102 -119.612016 185 36978ft 493kts
22-May-20 14:13 36.059367 -119.614308 185 36978ft 494kts
22-May-20 14:14 35.923861 -119.627056 194 36975ft 487kts
22-May-20 14:15 35.789506 -119.654595 194 36976ft 487kts
22-May-20 14:16 35.653435 -119.662644 175 36977ft 499kts
22-May-20 14:17 35.523994 -119.608492 159 36963ft 496kts
22-May-20 14:18 35.398502 -119.538178 159 36959ft 495kts
22-May-20 14:19 35.272863 -119.469017 159 36960ft 496kts
22-May-20 14:20 35.147512 -119.400390 159 36547ft 493kts
22-May-20 14:21 35.022828 -119.332189 159 35538ft 485kts
22-May-20 14:22 34.900163 -119.265339 157 34216ft 478kts
22-May-20 14:23 34.779991 -119.200244 157 31406ft 477kts
22-May-20 14:24 34.661157 -119.128936 153 28811ft 463kts
22-May-20 14:25 34.552598 -119.059615 153 27555ft 432kts
22-May-20 14:26 34.447020 -118.991225 153 25368ft 429kts
22-May-20 14:27 34.343861 -118.922749 153 23560ft 416kts
22-May-20 14:28 34.243804 -118.857065 156 21835ft 398kts
22-May-20 14:29 34.142406 -118.812212 165 20148ft 380kts
22-May-20 14:30 34.043884 -118.773500 165 18582ft 365kts
22-May-20 14:31 33.948964 -118.736808 165 16894ft 356kts
22-May-20 14:32 33.855386 -118.700820 165 15217ft 346kts
22-May-20 14:33 33.765097 -118.666081 165 13593ft 336kts
22-May-20 14:34 33.676723 -118.634199 167 11997ft 327kts
22-May-20 14:35 33.593147 -118.596710 140 10510ft 321kts
22-May-20 14:36 33.546078 -118.513157 124 9753ft 294kts
22-May-20 14:37 33.519267 -118.422876 91 8500ft 292kts
22-May-20 14:38 33.519799 -118.329170 80 7064ft 296kts
22-May-20 14:39 33.547653 -118.238448 70 5880ft 281kts
22-May-20 14:40 33.580158 -118.153890 58 5026ft 286kts
22-May-20 14:41 33.624908 -118.074032 56 5017ft 289kts
22-May-20 14:42 33.669782 -117.993487 57 5018ft 288kts
22-May-20 14:43 33.725451 -117.926504 26 5020ft 288kts
22-May-20 14:44 33.796370 -117.882525 27 4711ft 273kts
22-May-20 14:45 33.860030 -117.841629 28 4020ft 241kts
22-May-20 14:46 33.916463 -117.805186 27 3991ft 212kts
22-May-20 14:47 33.967118 -117.771862 39 3992ft 207kts
22-May-20 14:48 33.953304 -117.725042 164 4014ft 184kts
22-May-20 14:49 33.904694 -117.725964 202 3283ft 176kts
22-May-20 14:50 33.861425 -117.751497 209 2999ft 172kts
22-May-20 14:51 33.819109 -117.778090 208 2999ft 170kts
22-May-20 14:52 33.777424 -117.804444 208 2198ft 165kts
22-May-20 14:53 33.741430 -117.827257 207 1379ft 126kts
22-May-20 14:54 33.710119 -117.847043 206 732ft 126kts
22-May-20 14:55 33.679104 -117.866683 206 71ft 123kts
22-May-20 14:56 33.669057 -117.871197 87 65ft 10kts
22-May-20 14:57 33.674445 -117.866274 25 65ft 24kts

Navigation Log

Ident Type
Flight plan parsing failed, navigation log unavailable